Time;durP1;ratioP1;P1;durP2;ratioP2;P2;SDS_P1;SDS_P2;PMS_P1;PMS_P2;Temp;Humidity;BMP_temperature;BMP_pressure;BME280_temperature;BME280_humidity;BME280_pressure;Samples;Min_cycle;Max_cycle;Signal;HPM_P1;HPM_P2
2023/03/08 00:00:04;;;;;;;0.45;0.40;;;16.10;68.00;;;;;;4974760;28;20018;-71
2023/03/08 00:02:30;;;;;;;0.40;0.40;;;16.10;68.00;;;;;;4974986;28;20489;-70
2023/03/08 00:04:55;;;;;;;0.43;0.28;;;16.10;68.10;;;;;;4988957;28;20086;-70
2023/03/08 00:07:21;;;;;;;2.80;0.50;;;16.10;68.20;;;;;;4986921;28;20033;-71
2023/03/08 00:09:47;;;;;;;0.25;0.25;;;16.10;68.10;;;;;;4992041;28;20097;-71
2023/03/08 00:12:13;;;;;;;0.85;0.32;;;16.10;68.20;;;;;;4991727;28;20110;-71
2023/03/08 00:14:38;;;;;;;0.85;0.38;;;16.00;68.20;;;;;;4995339;28;20022;-71
2023/03/08 00:17:04;;;;;;;0.28;0.25;;;16.00;68.30;;;;;;4994593;28;20026;-71
2023/03/08 00:19:30;;;;;;;0.73;0.30;;;16.00;68.20;;;;;;4994998;28;20026;-71
2023/03/08 00:21:55;;;;;;;0.35;0.20;;;16.00;68.40;;;;;;4995389;28;20026;-71
2023/03/08 00:24:21;;;;;;;0.32;0.20;;;16.00;68.40;;;;;;4994482;28;20041;-71
2023/03/08 00:26:46;;;;;;;1.38;0.60;;;16.00;68.40;;;;;;4994050;28;20026;-71
2023/03/08 00:29:12;;;;;;;0.52;0.30;;;16.00;68.40;;;;;;4995632;28;20069;-71
2023/03/08 00:31:38;;;;;;;0.30;0.30;;;15.90;68.30;;;;;;4995229;28;20109;-71
2023/03/08 00:34:03;;;;;;;0.30;0.30;;;16.00;68.50;;;;;;4995522;28;20085;-71
2023/03/08 00:36:29;;;;;;;0.50;0.47;;;16.00;68.60;;;;;;4995391;28;20026;-71
2023/03/08 00:38:55;;;;;;;0.20;0.20;;;15.90;68.60;;;;;;4995000;28;20029;-71
2023/03/08 00:41:21;;;;;;;0.20;0.20;;;15.90;68.70;;;;;;4993893;28;20053;-71
2023/03/08 00:43:47;;;;;;;0.68;0.43;;;15.90;68.70;;;;;;4994186;28;20688;-71
2023/03/08 00:46:12;;;;;;;0.68;0.40;;;15.90;68.80;;;;;;4994063;28;20030;-71
2023/03/08 00:48:38;;;;;;;0.28;0.25;;;15.90;68.80;;;;;;4994880;28;20033;-71
2023/03/08 00:51:04;;;;;;;0.32;0.28;;;15.90;68.70;;;;;;4995387;28;20050;-71
2023/03/08 00:53:30;;;;;;;0.60;0.20;;;15.90;68.80;;;;;;4994753;28;20026;-70
2023/03/08 00:55:56;;;;;;;1.65;0.20;;;15.80;68.80;;;;;;4993654;28;20027;-71
2023/03/08 00:58:23;;;;;;;0.50;0.40;;;15.80;68.90;;;;;;4993983;28;20027;-71
2023/03/08 01:00:48;;;;;;;0.80;0.30;;;15.80;68.90;;;;;;4994778;28;20018;-71
2023/03/08 01:03:14;;;;;;;0.25;0.25;;;15.80;68.90;;;;;;4995292;28;20440;-70
2023/03/08 01:05:41;;;;;;;0.30;0.30;;;15.80;69.00;;;;;;4994785;28;20015;-71
2023/03/08 01:08:07;;;;;;;0.30;0.22;;;15.80;69.00;;;;;;4993798;28;20431;-70
2023/03/08 01:10:32;;;;;;;0.32;0.30;;;15.80;69.10;;;;;;4993081;28;20101;-71
2023/03/08 01:12:58;;;;;;;1.80;0.30;;;15.80;69.10;;;;;;4995027;28;20046;-71
2023/03/08 01:15:24;;;;;;;0.43;0.30;;;15.80;69.10;;;;;;4993544;28;20026;-71
2023/03/08 01:17:49;;;;;;;0.43;0.30;;;15.80;69.20;;;;;;4994785;28;20022;-71
2023/03/08 01:20:15;;;;;;;0.30;0.30;;;15.80;69.20;;;;;;4994526;28;20026;-71
2023/03/08 01:22:41;;;;;;;0.10;0.10;;;15.70;69.20;;;;;;4994365;28;20055;-71
2023/03/08 01:25:07;;;;;;;0.25;0.20;;;15.70;69.20;;;;;;4993459;28;20513;-71
2023/03/08 01:27:32;;;;;;;0.38;0.38;;;15.70;69.20;;;;;;4993933;28;20037;-71
2023/03/08 01:29:58;;;;;;;0.20;0.20;;;15.80;69.30;;;;;;4994121;28;20026;-71
2023/03/08 01:32:24;;;;;;;0.20;0.20;;;15.70;69.30;;;;;;4994467;28;20022;-71
2023/03/08 01:34:49;;;;;;;0.30;0.20;;;15.70;69.40;;;;;;4994207;28;20054;-70
2023/03/08 01:37:15;;;;;;;0.63;0.20;;;15.70;69.40;;;;;;4994217;28;20014;-71
2023/03/08 01:39:41;;;;;;;0.68;0.20;;;15.70;70.40;;;;;;4992925;28;20037;-71
2023/03/08 01:42:06;;;;;;;0.65;0.30;;;15.70;69.40;;;;;;4994339;28;20536;-71
2023/03/08 01:44:53;;;;;;;0.30;0.30;;;15.70;69.40;;;;;;4993081;28;20558;-71
2023/03/08 01:47:19;;;;;;;0.20;0.20;;;15.70;69.40;;;;;;4992429;28;20030;-71
2023/03/08 01:49:45;;;;;;;0.28;0.28;;;15.70;69.50;;;;;;4993885;28;20018;-71
2023/03/08 01:52:19;;;;;;;0.47;0.30;;;15.60;69.50;;;;;;4993568;28;20030;-71
2023/03/08 01:54:47;;;;;;;0.25;0.25;;;15.70;69.50;;;;;;4976953;28;20031;-71
2023/03/08 01:57:30;;;;;;;0.35;0.30;;;15.70;69.50;;;;;;4993810;28;20500;-71
2023/03/08 01:59:58;;;;;;;0.40;0.30;;;15.60;69.50;;;;;;4972428;28;20018;-71
2023/03/08 02:02:27;;;;;;;0.30;0.30;;;15.60;69.60;;;;;;4992476;28;20018;-71
2023/03/08 02:04:52;;;;;;;0.45;0.35;;;15.60;69.60;;;;;;4992340;28;20073;-71
2023/03/08 02:07:18;;;;;;;0.20;0.20;;;15.60;69.60;;;;;;4991477;28;20019;-71
2023/03/08 02:09:44;;;;;;;0.20;0.20;;;15.60;69.70;;;;;;4992758;28;20078;-71
2023/03/08 02:12:11;;;;;;;0.32;0.30;;;15.60;69.70;;;;;;4976672;28;20536;-71
2023/03/08 02:14:37;;;;;;;1.48;0.30;;;15.60;69.90;;;;;;4992162;28;20073;-71
2023/03/08 02:17:02;;;;;;;1.83;0.43;;;15.60;69.70;;;;;;4992422;28;20027;-71
2023/03/08 02:19:42;;;;;;;0.38;0.20;;;15.60;69.80;;;;;;4992129;28;20030;-71
2023/03/08 02:22:12;;;;;;;0.35;0.30;;;15.60;69.90;;;;;;4993364;28;20022;-71
2023/03/08 02:24:37;;;;;;;1.15;0.30;;;15.60;69.90;;;;;;4991856;28;20024;-70
2023/03/08 02:27:06;;;;;;;0.63;0.30;;;15.50;69.90;;;;;;4993477;28;20030;-71
2023/03/08 02:29:32;;;;;;;0.50;0.50;;;15.50;70.00;;;;;;4991435;28;20050;-71
2023/03/08 02:31:57;;;;;;;0.95;0.47;;;15.50;70.00;;;;;;4992092;28;20058;-71
2023/03/08 02:34:23;;;;;;;0.35;0.35;;;15.50;70.10;;;;;;4993413;28;20029;-71
2023/03/08 02:36:50;;;;;;;1.35;0.40;;;15.50;70.00;;;;;;4991506;28;20042;-71
2023/03/08 02:39:15;;;;;;;0.85;0.60;;;15.50;70.00;;;;;;4993034;28;20033;-71
2023/03/08 02:41:41;;;;;;;0.70;0.40;;;15.50;70.00;;;;;;4993174;28;20029;-71
2023/03/08 02:44:07;;;;;;;1.60;0.40;;;15.50;70.10;;;;;;4993282;28;20029;-71
2023/03/08 02:46:33;;;;;;;0.55;0.40;;;15.50;70.10;;;;;;4993270;28;20104;-71
2023/03/08 02:48:59;;;;;;;0.85;0.40;;;15.50;70.20;;;;;;4989219;28;20031;-71
2023/03/08 02:51:24;;;;;;;1.48;0.40;;;15.50;70.20;;;;;;4993062;28;20080;-71
2023/03/08 02:53:50;;;;;;;0.45;0.40;;;15.50;70.20;;;;;;4992127;28;20069;-71
2023/03/08 02:56:15;;;;;;;0.45;0.32;;;15.50;70.30;;;;;;4993179;28;20081;-71
2023/03/08 02:58:41;;;;;;;0.77;0.30;;;15.50;70.20;;;;;;4992727;28;20041;-71
2023/03/08 03:01:11;;;;;;;0.70;0.40;;;15.50;70.40;;;;;;4992839;28;20428;-71
2023/03/08 03:03:37;;;;;;;0.30;0.30;;;15.40;70.30;;;;;;4991578;28;20018;-71
2023/03/08 03:06:03;;;;;;;0.45;0.40;;;15.50;70.40;;;;;;4992884;28;20072;-71
2023/03/08 03:08:30;;;;;;;1.75;0.40;;;15.50;70.40;;;;;;4991779;28;20105;-71
2023/03/08 03:10:55;;;;;;;2.92;0.85;;;15.50;70.60;;;;;;4990546;28;20076;-71
2023/03/08 03:13:21;;;;;;;1.40;0.50;;;15.40;70.50;;;;;;4991461;28;20014;-71
2023/03/08 03:15:47;;;;;;;4.90;0.60;;;15.50;70.60;;;;;;4973982;28;20022;-71
2023/03/08 03:18:12;;;;;;;3.05;0.50;;;15.40;70.60;;;;;;4991755;28;20031;-71
2023/03/08 03:20:38;;;;;;;4.50;0.50;;;15.40;70.60;;;;;;4993369;28;20035;-71
2023/03/08 03:23:04;;;;;;;4.68;0.50;;;15.40;70.80;;;;;;4993252;28;20120;-71
2023/03/08 03:25:29;;;;;;;1.42;0.50;;;15.40;70.90;;;;;;4993267;28;20033;-71
2023/03/08 03:27:55;;;;;;;2.17;0.57;;;15.50;71.00;;;;;;4993143;28;20066;-71
2023/03/08 03:30:21;;;;;;;2.65;0.50;;;15.40;70.80;;;;;;4993477;28;20023;-71
2023/03/08 03:32:46;;;;;;;0.95;0.40;;;15.40;70.90;;;;;;4993326;28;20026;-71
2023/03/08 03:35:12;;;;;;;1.75;0.40;;;15.40;70.90;;;;;;4993206;28;20054;-71
2023/03/08 03:37:38;;;;;;;1.40;0.55;;;15.40;70.90;;;;;;4991905;28;20393;-71
2023/03/08 03:40:04;;;;;;;1.73;0.40;;;15.40;70.70;;;;;;4993228;28;20397;-71
2023/03/08 03:42:30;;;;;;;0.98;0.43;;;15.40;70.80;;;;;;4992047;28;20033;-71
2023/03/08 03:44:55;;;;;;;0.98;0.50;;;15.40;70.70;;;;;;4992184;28;20026;-71
2023/03/08 03:47:21;;;;;;;1.63;0.50;;;15.40;71.00;;;;;;4993036;28;20026;-71
2023/03/08 03:49:46;;;;;;;3.45;0.60;;;15.40;70.90;;;;;;4996531;28;20057;-71
2023/03/08 03:52:12;;;;;;;0.90;0.55;;;15.40;70.90;;;;;;4997075;28;20057;-71
2023/03/08 03:54:38;;;;;;;1.80;0.60;;;15.40;70.90;;;;;;4996803;28;20101;-71
2023/03/08 03:57:04;;;;;;;0.98;0.60;;;15.40;71.00;;;;;;4996965;28;20022;-71
2023/03/08 03:59:29;;;;;;;1.05;0.50;;;15.30;70.80;;;;;;4996851;28;20454;-71
2023/03/08 04:01:55;;;;;;;1.85;0.55;;;15.40;71.00;;;;;;4996741;28;20061;-71
2023/03/08 04:04:21;;;;;;;1.35;0.50;;;15.30;70.80;;;;;;4997912;28;20023;-71
2023/03/08 04:06:46;;;;;;;1.88;0.68;;;15.30;70.80;;;;;;5008286;28;20032;-70
2023/03/08 04:09:13;;;;;;;0.85;0.57;;;15.30;70.90;;;;;;4994953;28;20034;-71
2023/03/08 04:11:39;;;;;;;1.50;0.57;;;15.30;70.80;;;;;;5016393;28;20068;-71
2023/03/08 04:14:05;;;;;;;2.17;0.60;;;15.30;70.90;;;;;;5015122;28;20473;-71
2023/03/08 04:16:32;;;;;;;0.90;0.45;;;15.30;71.00;;;;;;5015023;28;20097;-71
2023/03/08 04:18:59;;;;;;;1.05;0.50;;;15.30;71.00;;;;;;5014674;28;20121;-71
2023/03/08 04:21:25;;;;;;;2.10;0.80;;;15.30;72.00;;;;;;5014849;28;20045;-71
2023/03/08 04:23:51;;;;;;;1.98;0.70;;;15.30;71.10;;;;;;5014592;28;20405;-71
2023/03/08 04:26:17;;;;;;;1.35;0.60;;;15.30;71.30;;;;;;5014776;28;20034;-71
2023/03/08 04:28:42;;;;;;;1.58;1.10;;;15.30;71.20;;;;;;4999116;28;20085;-71
2023/03/08 04:31:12;;;;;;;1.02;0.40;;;15.30;71.20;;;;;;4994846;28;20113;-71
2023/03/08 04:33:38;;;;;;;2.40;0.77;;;15.30;71.30;;;;;;4995918;28;20033;-71
2023/03/08 04:36:04;;;;;;;1.55;0.70;;;15.30;71.40;;;;;;4996319;28;20097;-71
2023/03/08 04:38:30;;;;;;;1.98;0.60;;;15.30;71.40;;;;;;4996145;28;20041;-71
2023/03/08 04:41:01;;;;;;;2.78;0.70;;;15.30;71.50;;;;;;4996177;28;20109;-71
2023/03/08 04:43:30;;;;;;;2.50;0.55;;;15.30;71.80;;;;;;4996192;28;20072;-71
2023/03/08 04:45:56;;;;;;;1.95;0.65;;;15.30;71.70;;;;;;4995980;28;20030;-71
2023/03/08 04:48:22;;;;;;;2.85;1.10;;;15.30;72.00;;;;;;4995557;28;20080;-71
2023/03/08 04:50:54;;;;;;;1.27;0.60;;;15.30;72.00;;;;;;4995736;28;20444;-71
2023/03/08 04:53:20;;;;;;;2.88;0.60;;;15.20;71.70;;;;;;4995896;28;20026;-71
2023/03/08 04:55:46;;;;;;;2.05;0.80;;;15.30;71.90;;;;;;4994566;28;20085;-71
2023/03/08 04:58:12;;;;;;;1.67;0.52;;;15.30;72.20;;;;;;4995361;28;20019;-71
2023/03/08 05:00:37;;;;;;;1.02;0.50;;;15.30;72.10;;;;;;4994152;28;20480;-71
2023/03/08 05:03:03;;;;;;;2.38;0.50;;;15.30;72.10;;;;;;4995526;28;20034;-71
2023/03/08 05:05:28;;;;;;;1.85;0.80;;;15.30;72.20;;;;;;4990329;28;20488;-71
2023/03/08 05:07:54;;;;;;;1.13;0.60;;;15.30;72.30;;;;;;4976140;28;20439;-71
2023/03/08 05:10:20;;;;;;;0.63;0.40;;;15.30;72.20;;;;;;4976155;28;20509;-71
2023/03/08 05:12:45;;;;;;;1.13;0.45;;;15.30;72.40;;;;;;4974903;28;20105;-71
2023/03/08 05:15:11;;;;;;;1.65;0.50;;;15.20;72.20;;;;;;4976097;28;20107;-71
2023/03/08 05:17:36;;;;;;;1.42;0.52;;;15.20;72.50;;;;;;4975698;28;20113;-71
2023/03/08 05:20:03;;;;;;;1.35;0.60;;;15.30;72.50;;;;;;4975828;28;20027;-71
2023/03/08 05:22:28;;;;;;;2.42;0.93;;;15.20;72.50;;;;;;4991226;28;20441;-71
2023/03/08 05:24:54;;;;;;;1.92;0.60;;;15.20;72.70;;;;;;4994990;28;20049;-71
2023/03/08 05:27:20;;;;;;;2.67;0.80;;;15.20;72.60;;;;;;4995323;28;20018;-71
2023/03/08 05:29:45;;;;;;;2.45;0.70;;;15.20;72.60;;;;;;4993893;28;20027;-71
2023/03/08 05:32:11;;;;;;;0.60;0.45;;;15.20;72.60;;;;;;4993731;28;20047;-71
2023/03/08 05:34:37;;;;;;;2.90;0.70;;;15.20;72.50;;;;;;4994082;28;20022;-71
2023/03/08 05:37:02;;;;;;;3.63;0.82;;;15.20;72.60;;;;;;4995256;28;20508;-71
2023/03/08 05:39:29;;;;;;;2.58;0.90;;;15.20;72.70;;;;;;4995028;28;20031;-71
2023/03/08 05:41:55;;;;;;;2.00;0.85;;;15.20;72.70;;;;;;4991985;28;20042;-71
2023/03/08 05:44:21;;;;;;;2.88;0.90;;;15.20;72.70;;;;;;4992002;28;20026;-71
2023/03/08 05:46:49;;;;;;;1.85;0.55;;;15.20;72.90;;;;;;4991757;28;20094;-71
2023/03/08 05:49:15;;;;;;;1.60;0.70;;;15.20;72.70;;;;;;4994845;28;20377;-71
2023/03/08 05:51:40;;;;;;;1.08;0.73;;;15.20;72.70;;;;;;4994566;28;20076;-71
2023/03/08 05:54:06;;;;;;;1.80;0.60;;;15.20;72.70;;;;;;4993510;28;20038;-71
2023/03/08 05:56:32;;;;;;;3.67;0.90;;;15.10;72.80;;;;;;4994684;28;20050;-71
2023/03/08 05:58:57;;;;;;;1.83;0.70;;;15.20;72.70;;;;;;4994792;28;20042;-71
2023/03/08 06:01:24;;;;;;;5.28;1.10;;;15.20;72.80;;;;;;4994424;28;20033;-71
2023/03/08 06:03:55;;;;;;;2.00;0.60;;;15.10;72.70;;;;;;4993240;28;20023;-71
2023/03/08 06:06:21;;;;;;;1.77;0.90;;;15.10;72.70;;;;;;4981115;28;20027;-71
2023/03/08 06:08:47;;;;;;;3.10;1.27;;;15.20;72.70;;;;;;4991123;28;20023;-71
2023/03/08 06:11:13;;;;;;;3.28;0.82;;;15.10;73.00;;;;;;4991970;28;20073;-71
2023/03/08 06:13:39;;;;;;;3.42;0.90;;;15.10;72.90;;;;;;4991363;28;20412;-71
2023/03/08 06:16:05;;;;;;;2.50;0.50;;;15.20;73.00;;;;;;4988872;28;20420;-71
2023/03/08 06:18:31;;;;;;;2.22;0.80;;;15.10;73.00;;;;;;4991203;28;20069;-70
2023/03/08 06:21:10;;;;;;;2.55;0.88;;;15.10;73.00;;;;;;4990786;28;20057;-71
2023/03/08 06:23:36;;;;;;;2.60;0.60;;;15.10;72.90;;;;;;4989194;28;20042;-71
2023/03/08 06:26:02;;;;;;;2.42;0.77;;;15.10;72.90;;;;;;4990760;28;20022;-71
2023/03/08 06:28:28;;;;;;;1.83;0.70;;;15.10;72.90;;;;;;4990874;28;20027;-71
2023/03/08 06:30:53;;;;;;;3.80;1.20;;;15.10;73.00;;;;;;4990573;28;20025;-71
2023/03/08 06:33:21;;;;;;;3.50;0.98;;;15.10;73.00;;;;;;4992162;28;20045;-71
2023/03/08 06:36:06;;;;;;;1.38;0.60;;;15.10;73.00;;;;;;4991006;28;20156;-71
2023/03/08 06:38:33;;;;;;;2.15;0.80;;;15.10;73.00;;;;;;4991516;28;20501;-71
2023/03/08 06:40:58;;;;;;;3.20;0.85;;;15.10;74.00;;;;;;4991958;28;20022;-71
2023/03/08 06:43:24;;;;;;;3.08;1.05;;;15.10;73.00;;;;;;4992034;28;20023;-71
2023/03/08 06:45:50;;;;;;;4.05;0.90;;;15.10;73.00;;;;;;4990546;28;20018;-71
2023/03/08 06:48:15;;;;;;;3.67;0.95;;;15.10;74.00;;;;;;4991765;28;20481;-71
2023/03/08 06:50:41;;;;;;;2.35;0.70;;;15.10;73.10;;;;;;4991916;28;20023;-71
2023/03/08 06:53:07;;;;;;;2.72;0.85;;;15.10;73.10;;;;;;4991710;28;20023;-71
2023/03/08 06:55:36;;;;;;;2.20;0.93;;;15.10;73.00;;;;;;4990548;28;20455;-71
2023/03/08 06:58:02;;;;;;;1.60;0.63;;;15.10;73.10;;;;;;4990470;28;20109;-71
2023/03/08 07:00:27;;;;;;;3.80;1.33;;;15.10;73.10;;;;;;4990415;28;20114;-71
2023/03/08 07:02:53;;;;;;;2.65;0.80;;;15.10;73.10;;;;;;4990510;28;20107;-71
2023/03/08 07:05:19;;;;;;;3.22;1.10;;;15.10;73.10;;;;;;4990834;28;20485;-71
2023/03/08 07:07:45;;;;;;;3.35;1.35;;;15.10;73.00;;;;;;4991661;28;20034;-72
2023/03/08 07:10:13;;;;;;;3.72;0.88;;;15.10;72.80;;;;;;4991745;28;20018;-72
2023/03/08 07:12:42;;;;;;;2.80;0.82;;;15.10;72.50;;;;;;4988857;28;20010;-71
2023/03/08 07:15:08;;;;;;;3.13;1.20;;;15.10;72.40;;;;;;4990595;28;20019;-73
2023/03/08 07:17:34;;;;;;;2.38;0.80;;;15.10;72.20;;;;;;4990196;28;20404;-73
2023/03/08 07:20:01;;;;;;;4.15;1.05;;;15.10;72.10;;;;;;4990102;28;20054;-73
2023/03/08 07:22:28;;;;;;;3.50;1.02;;;15.10;72.10;;;;;;4992738;28;20041;-73
2023/03/08 07:24:54;;;;;;;3.47;0.85;;;15.10;71.90;;;;;;4995627;28;20057;-71
2023/03/08 07:27:19;;;;;;;3.33;0.90;;;15.00;71.90;;;;;;4994219;28;20058;-71
2023/03/08 07:29:45;;;;;;;2.13;0.90;;;15.10;71.80;;;;;;4995378;28;20022;-71
2023/03/08 07:32:11;;;;;;;2.90;1.20;;;15.10;71.70;;;;;;4995549;28;20021;-71
2023/03/08 07:34:36;;;;;;;3.15;1.00;;;15.00;71.60;;;;;;4994101;28;20031;-71
2023/03/08 07:37:02;;;;;;;3.10;0.90;;;15.00;71.60;;;;;;4995394;28;20369;-71
2023/03/08 07:39:27;;;;;;;2.30;0.77;;;15.10;71.60;;;;;;4995436;28;20092;-71
2023/03/08 07:41:53;;;;;;;3.22;0.95;;;15.00;71.50;;;;;;4994958;28;20032;-71
2023/03/08 07:44:19;;;;;;;2.97;0.90;;;15.10;71.40;;;;;;4995316;28;20026;-71
2023/03/08 07:46:45;;;;;;;4.05;1.42;;;15.00;71.30;;;;;;4995215;28;20026;-71
2023/03/08 07:49:11;;;;;;;2.60;1.10;;;15.00;71.20;;;;;;4993723;28;20420;-71
2023/03/08 07:51:36;;;;;;;2.08;1.00;;;15.00;71.20;;;;;;4995094;28;20165;-73
2023/03/08 07:54:02;;;;;;;4.35;1.35;;;15.00;71.20;;;;;;4977798;28;20022;-73
2023/03/08 07:56:28;;;;;;;2.25;0.98;;;15.00;71.20;;;;;;4987351;28;20019;-73
2023/03/08 07:58:57;;;;;;;1.45;0.63;;;15.00;71.30;;;;;;4990302;28;20034;-73
2023/03/08 08:01:22;;;;;;;4.05;1.10;;;15.00;71.30;;;;;;4976117;28;20023;-73
2023/03/08 08:03:49;;;;;;;3.60;1.00;;;15.00;71.30;;;;;;4978518;28;20381;-73
2023/03/08 08:06:14;;;;;;;4.63;1.00;;;15.00;71.40;;;;;;4994088;28;20023;-73
2023/03/08 08:08:40;;;;;;;3.97;1.38;;;15.00;71.40;;;;;;4995166;28;20030;-73
2023/03/08 08:11:10;;;;;;;2.42;0.82;;;15.00;71.50;;;;;;4994634;28;20504;-73
2023/03/08 08:13:36;;;;;;;2.17;1.02;;;15.00;71.40;;;;;;4981940;28;20027;-73
2023/03/08 08:16:02;;;;;;;6.78;1.42;;;15.00;71.50;;;;;;4976173;28;20391;-73
2023/03/08 08:18:27;;;;;;;3.20;1.10;;;15.00;71.50;;;;;;4976622;28;20037;-73
2023/03/08 08:21:07;;;;;;;5.05;1.35;;;15.00;71.50;;;;;;4959178;28;20030;-73
2023/03/08 08:23:33;;;;;;;5.47;1.15;;;15.00;71.50;;;;;;4975264;28;20117;-73
2023/03/08 08:25:58;;;;;;;5.20;1.20;;;15.00;72.50;;;;;;4975004;28;20437;-73
2023/03/08 08:28:24;;;;;;;4.85;1.30;;;15.00;71.50;;;;;;4975034;28;20512;-73
2023/03/08 08:31:01;;;;;;;4.53;1.33;;;15.00;71.40;;;;;;4989278;28;20022;-73
2023/03/08 08:33:27;;;;;;;2.28;1.05;;;15.00;71.40;;;;;;4995507;28;20032;-73
2023/03/08 08:35:53;;;;;;;2.70;0.93;;;15.00;71.40;;;;;;4995767;28;20045;-73
2023/03/08 08:38:18;;;;;;;3.05;1.17;;;15.00;71.40;;;;;;4995575;28;20441;-73
2023/03/08 08:40:44;;;;;;;4.95;1.30;;;15.00;71.40;;;;;;4995417;28;20030;-73
2023/03/08 08:43:10;;;;;;;2.50;1.23;;;15.00;71.40;;;;;;4995481;28;20026;-73
2023/03/08 08:45:35;;;;;;;3.63;1.30;;;15.00;71.40;;;;;;4995440;28;20026;-73
2023/03/08 08:48:01;;;;;;;3.08;1.13;;;15.00;71.30;;;;;;4995400;28;20034;-73
2023/03/08 08:50:26;;;;;;;4.53;1.08;;;15.00;71.40;;;;;;4995533;28;20081;-73
2023/03/08 08:52:52;;;;;;;4.22;1.42;;;15.00;71.40;;;;;;4995238;28;20489;-73
2023/03/08 08:55:17;;;;;;;4.18;1.27;;;14.90;71.40;;;;;;4995212;28;20046;-73
2023/03/08 08:57:44;;;;;;;2.92;1.17;;;15.00;71.50;;;;;;4995350;28;20045;-73
2023/03/08 09:00:12;;;;;;;3.95;1.30;;;14.90;71.40;;;;;;4995123;28;20031;-73
2023/03/08 09:02:38;;;;;;;2.67;1.20;;;15.00;71.40;;;;;;4995184;28;20109;-73
2023/03/08 09:05:04;;;;;;;4.00;1.13;;;14.90;71.30;;;;;;4995098;28;20138;-73
2023/03/08 09:07:29;;;;;;;3.13;1.20;;;14.90;71.30;;;;;;4995202;28;20085;-73
2023/03/08 09:09:55;;;;;;;4.35;1.17;;;14.90;71.40;;;;;;4994850;28;20027;-73
2023/03/08 09:12:21;;;;;;;5.80;1.40;;;14.90;71.40;;;;;;4993766;28;20126;-73
2023/03/08 09:14:46;;;;;;;2.88;1.38;;;14.90;71.40;;;;;;4993742;28;20485;-73
2023/03/08 09:17:12;;;;;;;4.50;1.40;;;14.90;71.40;;;;;;4994917;28;20101;-73
2023/03/08 09:19:38;;;;;;;4.30;1.35;;;14.90;71.40;;;;;;4994838;28;20503;-73
2023/03/08 09:22:03;;;;;;;2.95;1.30;;;14.90;71.40;;;;;;4994560;28;20041;-73
2023/03/08 09:24:29;;;;;;;4.80;1.67;;;14.90;71.40;;;;;;4994664;28;20501;-73
2023/03/08 09:26:54;;;;;;;3.78;1.38;;;14.90;71.40;;;;;;4994682;28;20446;-73
2023/03/08 09:29:20;;;;;;;3.45;1.40;;;14.90;71.40;;;;;;4994602;28;20033;-73
2023/03/08 09:31:46;;;;;;;3.00;1.20;;;14.90;71.70;;;;;;4994835;28;20408;-73
2023/03/08 09:34:13;;;;;;;4.10;1.25;;;14.90;71.40;;;;;;4994415;28;20105;-73
2023/03/08 09:36:39;;;;;;;3.97;1.23;;;14.90;71.40;;;;;;4993460;28;20027;-73
2023/03/08 09:39:05;;;;;;;7.05;1.40;;;14.90;71.50;;;;;;4993301;28;20481;-73
2023/03/08 09:41:30;;;;;;;2.63;1.20;;;14.90;71.40;;;;;;4994531;28;20030;-73
2023/03/08 09:43:58;;;;;;;3.90;1.20;;;14.90;71.50;;;;;;4994439;28;20547;-73
2023/03/08 09:46:29;;;;;;;3.42;1.00;;;14.90;71.50;;;;;;4993849;28;20030;-73
2023/03/08 09:48:59;;;;;;;3.13;1.17;;;14.90;71.50;;;;;;4993175;28;20033;-73
2023/03/08 09:51:25;;;;;;;4.00;1.40;;;14.90;71.40;;;;;;4992835;28;20060;-73
2023/03/08 09:53:54;;;;;;;5.03;1.77;;;14.90;71.50;;;;;;4992853;28;20058;-73
2023/03/08 09:56:46;;;;;;;3.45;1.50;;;14.90;71.50;;;;;;4977203;28;20535;-73
2023/03/08 09:59:32;;;;;;;2.75;1.08;;;14.90;71.40;;;;;;4977719;28;20026;-73
2023/03/08 10:02:14;;;;;;;3.28;1.35;;;14.90;71.40;;;;;;4993005;28;20027;-73
2023/03/08 10:04:40;;;;;;;3.22;1.15;;;14.90;71.40;;;;;;4992857;28;20118;-73
2023/03/08 10:07:06;;;;;;;4.97;1.27;;;14.90;71.50;;;;;;4993987;28;20045;-73
2023/03/08 10:09:33;;;;;;;4.22;1.30;;;14.90;71.40;;;;;;4993930;28;20073;-73
2023/03/08 10:12:10;;;;;;;4.72;1.38;;;14.90;72.50;;;;;;4993911;28;20033;-73
2023/03/08 10:14:38;;;;;;;5.07;1.45;;;14.90;71.50;;;;;;4992994;28;20019;-73
2023/03/08 10:17:10;;;;;;;3.83;1.35;;;14.90;71.50;;;;;;4992655;28;20026;-73
2023/03/08 10:19:45;;;;;;;4.57;1.53;;;14.90;71.50;;;;;;4992649;28;20019;-73
2023/03/08 10:22:31;;;;;;;2.78;1.00;;;14.90;71.50;;;;;;4992044;28;20102;-73
2023/03/08 10:25:23;;;;;;;4.93;1.70;;;14.90;71.50;;;;;;4992599;28;20038;-73
2023/03/08 10:27:51;;;;;;;4.55;1.30;;;14.90;72.40;;;;;;4992579;28;20030;-73
2023/03/08 10:30:18;;;;;;;3.33;1.20;;;14.90;71.40;;;;;;4993450;28;20030;-73
2023/03/08 10:32:46;;;;;;;4.72;1.25;;;14.90;71.40;;;;;;4992473;28;20026;-73
2023/03/08 10:35:11;;;;;;;4.18;1.38;;;14.80;71.30;;;;;;4992459;28;20088;-73
2023/03/08 10:37:37;;;;;;;3.55;1.20;;;14.80;71.30;;;;;;4993330;28;20448;-73
2023/03/08 10:40:08;;;;;;;2.85;1.10;;;14.90;71.40;;;;;;4993315;28;20072;-73
2023/03/08 10:42:33;;;;;;;3.65;1.33;;;14.80;71.30;;;;;;4992361;28;20030;-73
2023/03/08 10:45:03;;;;;;;5.28;1.30;;;14.80;71.30;;;;;;4992235;28;20046;-73
2023/03/08 10:47:33;;;;;;;3.03;1.17;;;14.80;71.30;;;;;;4992068;28;20085;-73
2023/03/08 10:50:08;;;;;;;2.28;1.10;;;14.80;71.30;;;;;;4991989;28;20026;-73
2023/03/08 10:52:34;;;;;;;3.25;1.05;;;14.80;71.30;;;;;;4993171;28;20026;-73
2023/03/08 10:55:10;;;;;;;3.15;0.90;;;14.80;71.20;;;;;;4991974;28;20030;-73
2023/03/08 10:57:36;;;;;;;4.00;1.25;;;14.80;71.20;;;;;;4992001;28;20022;-73
2023/03/08 11:00:12;;;;;;;3.28;1.60;;;14.80;71.20;;;;;;4992109;28;20100;-73
2023/03/08 11:02:38;;;;;;;2.25;1.15;;;14.80;71.30;;;;;;4991943;28;20077;-73
2023/03/08 11:05:17;;;;;;;3.80;1.20;;;14.80;71.20;;;;;;4991732;28;20034;-73
2023/03/08 11:07:49;;;;;;;2.95;1.00;;;14.90;71.30;;;;;;4992092;28;20026;-73
2023/03/08 11:10:16;;;;;;;4.38;1.30;;;14.80;72.30;;;;;;4991724;28;20062;-73
2023/03/08 11:12:42;;;;;;;3.58;1.50;;;14.80;71.20;;;;;;4993061;28;20085;-73
2023/03/08 11:15:18;;;;;;;3.33;1.15;;;14.80;71.20;;;;;;4991925;28;20026;-73
2023/03/08 11:18:03;;;;;;;2.05;0.90;;;14.80;71.20;;;;;;4992064;28;20105;-73
2023/03/08 11:20:50;;;;;;;3.95;1.35;;;14.80;71.20;;;;;;4991597;28;20022;-73
2023/03/08 11:23:36;;;;;;;2.13;0.90;;;14.80;71.20;;;;;;5024305;28;20038;-73
2023/03/08 11:26:12;;;;;;;3.40;1.17;;;14.80;71.20;;;;;;4991679;28;20018;-73
2023/03/08 11:29:03;;;;;;;2.85;1.10;;;14.80;71.20;;;;;;4991686;28;20512;-73
2023/03/08 11:32:07;;;;;;;3.10;1.05;;;14.80;71.10;;;;;;4991665;28;20046;-73
2023/03/08 11:34:49;;;;;;;2.92;0.90;;;14.80;71.10;;;;;;5009996;28;20045;-73
2023/03/08 11:37:24;;;;;;;3.45;1.17;;;14.80;71.20;;;;;;5009591;28;20121;-73
2023/03/08 11:40:12;;;;;;;2.15;1.30;;;14.80;71.20;;;;;;5026759;28;20046;-73
2023/03/08 11:43:16;;;;;;;2.67;1.00;;;14.80;71.10;;;;;;5024192;28;20030;-73
2023/03/08 11:45:56;;;;;;;2.30;1.00;;;14.80;71.10;;;;;;5024347;28;20500;-73
2023/03/08 11:48:33;;;;;;;4.88;1.27;;;14.80;71.10;;;;;;5009863;28;20029;-73
2023/03/08 11:51:51;;;;;;;2.10;1.13;;;14.80;71.10;;;;;;5026611;28;20033;-73
2023/03/08 11:54:40;;;;;;;4.13;1.25;;;14.80;71.10;;;;;;4999756;28;20042;-73
2023/03/08 11:57:10;;;;;;;3.00;1.00;;;14.80;71.10;;;;;;4993956;28;20097;-73
2023/03/08 12:00:07;;;;;;;4.22;1.20;;;14.80;71.10;;;;;;4993809;28;20041;-73
2023/03/08 12:02:35;;;;;;;3.05;1.08;;;14.80;71.00;;;;;;5010050;28;20044;-73
2023/03/08 12:05:08;;;;;;;4.88;1.27;;;14.80;71.10;;;;;;4993819;28;20424;-73
2023/03/08 12:07:54;;;;;;;3.00;1.33;;;14.80;71.10;;;;;;5026487;28;20061;-73
2023/03/08 12:10:22;;;;;;;2.85;0.90;;;14.80;71.10;;;;;;5013388;28;20048;-73
2023/03/08 12:13:11;;;;;;;2.50;1.13;;;14.80;71.00;;;;;;5011207;28;20014;-73
2023/03/08 12:15:54;;;;;;;3.28;1.25;;;14.80;71.00;;;;;;4998633;28;20060;-73
2023/03/08 12:18:45;;;;;;;2.53;1.30;;;14.80;71.10;;;;;;4994677;28;20026;-73
2023/03/08 12:21:41;;;;;;;1.58;0.73;;;14.80;71.10;;;;;;4996073;28;20023;-73
2023/03/08 12:24:22;;;;;;;3.13;1.20;;;14.80;71.00;;;;;;4996047;28;20081;-73
2023/03/08 12:26:57;;;;;;;3.13;1.17;;;14.80;71.00;;;;;;4995983;28;20093;-73
2023/03/08 12:29:46;;;;;;;2.90;0.90;;;14.80;71.00;;;;;;4994544;28;20030;-73
2023/03/08 12:32:12;;;;;;;3.55;1.20;;;14.80;71.00;;;;;;4994486;28;20030;-73
2023/03/08 12:34:39;;;;;;;2.08;0.98;;;14.80;71.00;;;;;;4994547;28;20536;-73
2023/03/08 12:37:17;;;;;;;1.83;0.80;;;14.80;71.00;;;;;;4995919;28;20030;-73
2023/03/08 12:39:42;;;;;;;3.47;1.27;;;14.70;71.00;;;;;;4994434;28;20032;-73
2023/03/08 12:42:14;;;;;;;3.03;1.20;;;14.70;71.00;;;;;;4994292;28;20034;-73
2023/03/08 12:44:40;;;;;;;3.13;1.00;;;14.80;71.00;;;;;;4994201;28;20045;-73
2023/03/08 12:47:12;;;;;;;1.50;0.80;;;14.70;71.00;;;;;;4994316;28;20404;-73
2023/03/08 12:49:45;;;;;;;1.50;0.98;;;14.80;71.00;;;;;;4995501;28;20065;-73
2023/03/08 12:52:17;;;;;;;2.88;1.00;;;14.80;72.00;;;;;;4994159;28;20109;-73
2023/03/08 12:54:43;;;;;;;3.35;1.10;;;14.70;71.00;;;;;;4995198;28;20038;-73